sensor_id;sensor_type;location;lat;lon;timestamp;P1;durP1;ratioP1;P2;durP2;ratioP2
22034;SDS011;11181;51.002;4.356;2023-04-25T00:00:48;9.50;;;3.23;;
22034;SDS011;11181;51.002;4.356;2023-04-25T00:03:15;11.83;;;3.13;;
22034;SDS011;11181;51.002;4.356;2023-04-25T00:05:43;10.07;;;3.37;;
22034;SDS011;11181;51.002;4.356;2023-04-25T00:08:10;13.37;;;3.70;;
22034;SDS011;11181;51.002;4.356;2023-04-25T00:10:37;8.93;;;3.80;;
22034;SDS011;11181;51.002;4.356;2023-04-25T00:13:04;10.57;;;4.17;;
22034;SDS011;11181;51.002;4.356;2023-04-25T00:15:31;12.10;;;4.13;;
22034;SDS011;11181;51.002;4.356;2023-04-25T00:17:59;10.37;;;3.33;;
22034;SDS011;11181;51.002;4.356;2023-04-25T00:20:26;13.40;;;3.93;;
22034;SDS011;11181;51.002;4.356;2023-04-25T00:22:53;10.83;;;3.63;;
22034;SDS011;11181;51.002;4.356;2023-04-25T00:25:20;14.30;;;4.10;;
22034;SDS011;11181;51.002;4.356;2023-04-25T00:27:47;8.17;;;3.17;;
22034;SDS011;11181;51.002;4.356;2023-04-25T00:30:14;9.63;;;3.40;;
22034;SDS011;11181;51.002;4.356;2023-04-25T00:32:41;12.17;;;3.17;;
22034;SDS011;11181;51.002;4.356;2023-04-25T00:35:10;15.23;;;4.40;;
22034;SDS011;11181;51.002;4.356;2023-04-25T00:37:36;12.00;;;4.03;;
22034;SDS011;11181;51.002;4.356;2023-04-25T00:40:04;10.73;;;3.60;;
22034;SDS011;11181;51.002;4.356;2023-04-25T00:42:32;14.23;;;4.00;;
22034;SDS011;11181;51.002;4.356;2023-04-25T00:45:01;11.10;;;3.47;;
22034;SDS011;11181;51.002;4.356;2023-04-25T00:47:29;11.47;;;3.23;;
22034;SDS011;11181;51.002;4.356;2023-04-25T00:49:57;8.63;;;3.30;;
22034;SDS011;11181;51.002;4.356;2023-04-25T00:52:26;8.47;;;3.63;;
22034;SDS011;11181;51.002;4.356;2023-04-25T00:54:52;8.23;;;2.90;;
22034;SDS011;11181;51.002;4.356;2023-04-25T00:57:19;9.37;;;3.73;;
22034;SDS011;11181;51.002;4.356;2023-04-25T00:59:46;11.47;;;3.70;;
22034;SDS011;11181;51.002;4.356;2023-04-25T01:02:16;11.47;;;3.43;;
22034;SDS011;11181;51.002;4.356;2023-04-25T01:04:44;9.57;;;3.13;;
22034;SDS011;11181;51.002;4.356;2023-04-25T01:07:11;7.73;;;3.60;;
22034;SDS011;11181;51.002;4.356;2023-04-25T01:09:39;11.13;;;4.03;;
22034;SDS011;11181;51.002;4.356;2023-04-25T01:12:07;5.23;;;2.93;;
22034;SDS011;11181;51.002;4.356;2023-04-25T01:14:34;7.50;;;3.17;;
22034;SDS011;11181;51.002;4.356;2023-04-25T01:17:00;11.90;;;3.47;;
22034;SDS011;11181;51.002;4.356;2023-04-25T01:19:27;8.40;;;3.20;;
22034;SDS011;11181;51.002;4.356;2023-04-25T01:21:57;8.90;;;3.50;;
22034;SDS011;11181;51.002;4.356;2023-04-25T01:24:24;11.13;;;3.30;;
22034;SDS011;11181;51.002;4.356;2023-04-25T01:26:52;7.30;;;3.17;;
22034;SDS011;11181;51.002;4.356;2023-04-25T01:29:21;8.60;;;3.43;;
22034;SDS011;11181;51.002;4.356;2023-04-25T01:31:49;5.77;;;3.23;;
22034;SDS011;11181;51.002;4.356;2023-04-25T01:34:17;8.77;;;3.10;;
22034;SDS011;11181;51.002;4.356;2023-04-25T01:36:44;12.80;;;4.60;;
22034;SDS011;11181;51.002;4.356;2023-04-25T01:39:13;6.60;;;2.90;;
22034;SDS011;11181;51.002;4.356;2023-04-25T01:41:41;7.63;;;3.13;;
22034;SDS011;11181;51.002;4.356;2023-04-25T01:44:08;8.20;;;3.20;;
22034;SDS011;11181;51.002;4.356;2023-04-25T01:46:35;12.67;;;3.83;;
22034;SDS011;11181;51.002;4.356;2023-04-25T01:49:02;8.30;;;3.10;;
22034;SDS011;11181;51.002;4.356;2023-04-25T01:51:29;13.63;;;4.37;;
22034;SDS011;11181;51.002;4.356;2023-04-25T01:53:56;10.90;;;3.83;;
22034;SDS011;11181;51.002;4.356;2023-04-25T01:56:25;11.17;;;3.40;;
22034;SDS011;11181;51.002;4.356;2023-04-25T01:58:57;10.97;;;3.27;;
22034;SDS011;11181;51.002;4.356;2023-04-25T02:01:24;10.13;;;3.63;;
22034;SDS011;11181;51.002;4.356;2023-04-25T02:03:52;11.20;;;2.93;;
22034;SDS011;11181;51.002;4.356;2023-04-25T02:06:19;12.50;;;3.20;;
22034;SDS011;11181;51.002;4.356;2023-04-25T02:08:45;10.80;;;3.30;;
22034;SDS011;11181;51.002;4.356;2023-04-25T02:11:12;16.30;;;3.53;;
22034;SDS011;11181;51.002;4.356;2023-04-25T02:13:41;12.73;;;2.93;;
22034;SDS011;11181;51.002;4.356;2023-04-25T02:16:07;12.90;;;3.53;;
22034;SDS011;11181;51.002;4.356;2023-04-25T02:18:34;10.00;;;3.53;;
22034;SDS011;11181;51.002;4.356;2023-04-25T02:21:02;9.80;;;2.87;;
22034;SDS011;11181;51.002;4.356;2023-04-25T02:23:29;12.80;;;3.57;;
22034;SDS011;11181;51.002;4.356;2023-04-25T02:25:56;10.53;;;2.97;;
22034;SDS011;11181;51.002;4.356;2023-04-25T02:28:23;7.93;;;3.53;;
22034;SDS011;11181;51.002;4.356;2023-04-25T02:30:52;11.77;;;3.43;;
22034;SDS011;11181;51.002;4.356;2023-04-25T02:33:19;10.07;;;3.93;;
22034;SDS011;11181;51.002;4.356;2023-04-25T02:35:46;6.73;;;2.50;;
22034;SDS011;11181;51.002;4.356;2023-04-25T02:38:13;14.47;;;4.63;;
22034;SDS011;11181;51.002;4.356;2023-04-25T02:40:40;12.30;;;4.83;;
22034;SDS011;11181;51.002;4.356;2023-04-25T02:43:07;10.23;;;3.37;;
22034;SDS011;11181;51.002;4.356;2023-04-25T02:45:34;11.30;;;3.23;;
22034;SDS011;11181;51.002;4.356;2023-04-25T02:48:03;9.93;;;2.97;;
22034;SDS011;11181;51.002;4.356;2023-04-25T02:50:30;9.87;;;2.97;;
22034;SDS011;11181;51.002;4.356;2023-04-25T02:52:57;12.20;;;3.37;;
22034;SDS011;11181;51.002;4.356;2023-04-25T02:55:23;8.53;;;3.00;;
22034;SDS011;11181;51.002;4.356;2023-04-25T02:57:51;14.20;;;3.73;;
22034;SDS011;11181;51.002;4.356;2023-04-25T03:00:20;10.97;;;3.60;;
22034;SDS011;11181;51.002;4.356;2023-04-25T03:02:47;13.33;;;3.63;;
22034;SDS011;11181;51.002;4.356;2023-04-25T03:05:15;10.93;;;3.10;;
22034;SDS011;11181;51.002;4.356;2023-04-25T03:07:42;11.00;;;3.50;;
22034;SDS011;11181;51.002;4.356;2023-04-25T03:10:10;10.47;;;2.77;;
22034;SDS011;11181;51.002;4.356;2023-04-25T03:12:37;11.20;;;3.17;;
22034;SDS011;11181;51.002;4.356;2023-04-25T03:15:05;13.00;;;3.10;;
22034;SDS011;11181;51.002;4.356;2023-04-25T03:17:32;12.63;;;3.23;;
22034;SDS011;11181;51.002;4.356;2023-04-25T03:19:59;12.90;;;3.47;;
22034;SDS011;11181;51.002;4.356;2023-04-25T03:22:28;17.30;;;3.90;;
22034;SDS011;11181;51.002;4.356;2023-04-25T03:24:54;9.37;;;3.00;;
22034;SDS011;11181;51.002;4.356;2023-04-25T03:27:21;5.63;;;2.47;;
22034;SDS011;11181;51.002;4.356;2023-04-25T03:29:48;10.83;;;3.83;;
22034;SDS011;11181;51.002;4.356;2023-04-25T03:32:15;9.13;;;4.13;;
22034;SDS011;11181;51.002;4.356;2023-04-25T03:34:42;15.17;;;3.33;;
22034;SDS011;11181;51.002;4.356;2023-04-25T03:37:09;9.57;;;4.90;;
22034;SDS011;11181;51.002;4.356;2023-04-25T03:39:37;10.10;;;3.20;;
22034;SDS011;11181;51.002;4.356;2023-04-25T03:42:04;12.20;;;3.20;;
22034;SDS011;11181;51.002;4.356;2023-04-25T03:44:31;7.00;;;2.90;;
22034;SDS011;11181;51.002;4.356;2023-04-25T03:46:58;9.00;;;3.30;;
22034;SDS011;11181;51.002;4.356;2023-04-25T03:49:25;14.83;;;3.30;;
22034;SDS011;11181;51.002;4.356;2023-04-25T03:51:52;7.67;;;3.37;;
22034;SDS011;11181;51.002;4.356;2023-04-25T03:54:18;11.97;;;3.77;;
22034;SDS011;11181;51.002;4.356;2023-04-25T03:56:47;9.63;;;3.30;;
22034;SDS011;11181;51.002;4.356;2023-04-25T03:59:14;10.07;;;3.67;;
22034;SDS011;11181;51.002;4.356;2023-04-25T04:01:41;12.37;;;3.53;;
22034;SDS011;11181;51.002;4.356;2023-04-25T04:04:08;8.63;;;3.00;;
22034;SDS011;11181;51.002;4.356;2023-04-25T04:06:35;19.10;;;4.13;;
22034;SDS011;11181;51.002;4.356;2023-04-25T04:09:02;12.40;;;3.63;;
22034;SDS011;11181;51.002;4.356;2023-04-25T04:11:31;9.30;;;3.40;;
22034;SDS011;11181;51.002;4.356;2023-04-25T04:13:59;12.60;;;4.30;;
22034;SDS011;11181;51.002;4.356;2023-04-25T04:16:26;13.53;;;3.50;;
22034;SDS011;11181;51.002;4.356;2023-04-25T04:18:53;12.03;;;4.40;;
22034;SDS011;11181;51.002;4.356;2023-04-25T04:21:20;13.17;;;2.80;;
22034;SDS011;11181;51.002;4.356;2023-04-25T04:23:47;9.27;;;3.23;;
22034;SDS011;11181;51.002;4.356;2023-04-25T04:26:14;7.33;;;3.20;;
22034;SDS011;11181;51.002;4.356;2023-04-25T04:28:41;9.90;;;2.90;;
22034;SDS011;11181;51.002;4.356;2023-04-25T04:31:10;9.97;;;2.90;;
22034;SDS011;11181;51.002;4.356;2023-04-25T04:33:37;6.33;;;2.60;;
22034;SDS011;11181;51.002;4.356;2023-04-25T04:36:05;8.07;;;4.10;;
22034;SDS011;11181;51.002;4.356;2023-04-25T04:38:32;7.83;;;2.90;;
22034;SDS011;11181;51.002;4.356;2023-04-25T04:40:59;7.73;;;3.03;;
22034;SDS011;11181;51.002;4.356;2023-04-25T04:43:27;7.00;;;3.00;;
22034;SDS011;11181;51.002;4.356;2023-04-25T04:45:54;5.03;;;2.83;;
22034;SDS011;11181;51.002;4.356;2023-04-25T04:48:23;12.20;;;4.03;;
22034;SDS011;11181;51.002;4.356;2023-04-25T04:50:50;11.00;;;3.20;;
22034;SDS011;11181;51.002;4.356;2023-04-25T04:53:17;8.07;;;2.97;;
22034;SDS011;11181;51.002;4.356;2023-04-25T04:55:44;4.70;;;2.63;;
22034;SDS011;11181;51.002;4.356;2023-04-25T04:58:11;6.53;;;2.57;;
22034;SDS011;11181;51.002;4.356;2023-04-25T05:00:38;10.33;;;3.30;;
22034;SDS011;11181;51.002;4.356;2023-04-25T05:03:05;9.47;;;3.60;;
22034;SDS011;11181;51.002;4.356;2023-04-25T05:05:33;12.40;;;3.47;;
22034;SDS011;11181;51.002;4.356;2023-04-25T05:08:00;8.40;;;3.63;;
22034;SDS011;11181;51.002;4.356;2023-04-25T05:10:27;8.87;;;3.43;;
22034;SDS011;11181;51.002;4.356;2023-04-25T05:12:54;11.77;;;3.60;;
22034;SDS011;11181;51.002;4.356;2023-04-25T05:15:20;10.27;;;3.47;;
22034;SDS011;11181;51.002;4.356;2023-04-25T05:17:47;8.47;;;3.53;;
22034;SDS011;11181;51.002;4.356;2023-04-25T05:20:14;9.63;;;3.40;;
22034;SDS011;11181;51.002;4.356;2023-04-25T05:22:44;12.70;;;3.83;;
22034;SDS011;11181;51.002;4.356;2023-04-25T05:25:11;14.00;;;4.47;;
22034;SDS011;11181;51.002;4.356;2023-04-25T05:27:38;9.20;;;4.17;;
22034;SDS011;11181;51.002;4.356;2023-04-25T05:30:05;10.43;;;3.43;;
22034;SDS011;11181;51.002;4.356;2023-04-25T05:32:33;12.50;;;3.57;;
22034;SDS011;11181;51.002;4.356;2023-04-25T05:35:00;8.60;;;3.40;;
22034;SDS011;11181;51.002;4.356;2023-04-25T05:37:27;9.73;;;3.00;;
22034;SDS011;11181;51.002;4.356;2023-04-25T05:39:56;9.47;;;3.70;;
22034;SDS011;11181;51.002;4.356;2023-04-25T05:42:23;8.20;;;3.33;;
22034;SDS011;11181;51.002;4.356;2023-04-25T05:44:50;8.20;;;2.90;;
22034;SDS011;11181;51.002;4.356;2023-04-25T05:47:17;12.20;;;3.70;;
22034;SDS011;11181;51.002;4.356;2023-04-25T05:49:44;8.33;;;3.37;;
22034;SDS011;11181;51.002;4.356;2023-04-25T05:52:11;8.80;;;3.70;;
22034;SDS011;11181;51.002;4.356;2023-04-25T05:54:38;6.70;;;3.33;;
22034;SDS011;11181;51.002;4.356;2023-04-25T05:57:06;7.67;;;2.83;;
22034;SDS011;11181;51.002;4.356;2023-04-25T05:59:33;12.23;;;3.10;;
22034;SDS011;11181;51.002;4.356;2023-04-25T06:02:00;8.63;;;2.70;;
22034;SDS011;11181;51.002;4.356;2023-04-25T06:04:27;6.80;;;3.47;;
22034;SDS011;11181;51.002;4.356;2023-04-25T06:06:54;9.77;;;4.47;;
22034;SDS011;11181;51.002;4.356;2023-04-25T06:09:21;14.30;;;4.20;;
22034;SDS011;11181;51.002;4.356;2023-04-25T06:11:48;6.27;;;2.90;;
22034;SDS011;11181;51.002;4.356;2023-04-25T06:14:17;15.93;;;5.43;;
22034;SDS011;11181;51.002;4.356;2023-04-25T06:16:43;6.00;;;2.50;;
22034;SDS011;11181;51.002;4.356;2023-04-25T06:19:10;8.90;;;2.60;;
22034;SDS011;11181;51.002;4.356;2023-04-25T06:21:37;7.17;;;2.23;;
22034;SDS011;11181;51.002;4.356;2023-04-25T06:24:04;9.40;;;2.40;;
22034;SDS011;11181;51.002;4.356;2023-04-25T06:26:31;11.43;;;2.50;;
22034;SDS011;11181;51.002;4.356;2023-04-25T06:28:58;6.43;;;2.43;;
22034;SDS011;11181;51.002;4.356;2023-04-25T06:31:26;7.33;;;2.13;;
22034;SDS011;11181;51.002;4.356;2023-04-25T06:33:54;8.13;;;3.33;;
22034;SDS011;11181;51.002;4.356;2023-04-25T06:36:21;12.80;;;2.93;;
22034;SDS011;11181;51.002;4.356;2023-04-25T06:38:50;5.23;;;2.37;;
22034;SDS011;11181;51.002;4.356;2023-04-25T06:41:17;11.43;;;2.97;;
22034;SDS011;11181;51.002;4.356;2023-04-25T06:43:45;12.13;;;2.83;;
22034;SDS011;11181;51.002;4.356;2023-04-25T06:46:12;10.27;;;2.30;;
22034;SDS011;11181;51.002;4.356;2023-04-25T06:48:40;11.67;;;2.77;;
22034;SDS011;11181;51.002;4.356;2023-04-25T06:51:07;6.50;;;2.70;;
22034;SDS011;11181;51.002;4.356;2023-04-25T06:53:37;10.27;;;3.00;;
22034;SDS011;11181;51.002;4.356;2023-04-25T06:56:04;11.60;;;3.03;;
22034;SDS011;11181;51.002;4.356;2023-04-25T06:58:32;9.47;;;2.53;;
22034;SDS011;11181;51.002;4.356;2023-04-25T07:00:59;7.60;;;2.50;;
22034;SDS011;11181;51.002;4.356;2023-04-25T07:03:26;6.60;;;2.10;;
22034;SDS011;11181;51.002;4.356;2023-04-25T07:05:54;12.80;;;2.50;;
22034;SDS011;11181;51.002;4.356;2023-04-25T07:08:21;9.30;;;2.17;;
22034;SDS011;11181;51.002;4.356;2023-04-25T07:10:48;7.07;;;2.33;;
22034;SDS011;11181;51.002;4.356;2023-04-25T07:13:15;5.83;;;2.33;;
22034;SDS011;11181;51.002;4.356;2023-04-25T07:15:42;13.40;;;2.90;;
22034;SDS011;11181;51.002;4.356;2023-04-25T07:18:10;11.43;;;2.83;;
22034;SDS011;11181;51.002;4.356;2023-04-25T07:20:37;12.27;;;2.80;;
22034;SDS011;11181;51.002;4.356;2023-04-25T07:23:05;4.13;;;1.63;;
22034;SDS011;11181;51.002;4.356;2023-04-25T07:25:32;10.23;;;3.03;;
22034;SDS011;11181;51.002;4.356;2023-04-25T07:28:00;8.03;;;2.27;;
22034;SDS011;11181;51.002;4.356;2023-04-25T07:30:27;7.53;;;2.37;;
22034;SDS011;11181;51.002;4.356;2023-04-25T07:32:54;7.40;;;2.00;;
22034;SDS011;11181;51.002;4.356;2023-04-25T07:35:21;7.37;;;2.57;;
22034;SDS011;11181;51.002;4.356;2023-04-25T07:37:48;4.80;;;2.47;;
22034;SDS011;11181;51.002;4.356;2023-04-25T07:40:16;13.20;;;2.93;;
22034;SDS011;11181;51.002;4.356;2023-04-25T07:42:43;10.40;;;2.70;;
22034;SDS011;11181;51.002;4.356;2023-04-25T07:45:10;8.13;;;3.03;;
22034;SDS011;11181;51.002;4.356;2023-04-25T07:47:37;10.63;;;2.30;;
22034;SDS011;11181;51.002;4.356;2023-04-25T07:50:04;6.60;;;2.10;;
22034;SDS011;11181;51.002;4.356;2023-04-25T07:52:32;5.87;;;2.20;;
22034;SDS011;11181;51.002;4.356;2023-04-25T07:54:59;5.77;;;2.03;;
22034;SDS011;11181;51.002;4.356;2023-04-25T07:57:27;7.30;;;2.57;;
22034;SDS011;11181;51.002;4.356;2023-04-25T07:59:55;14.77;;;3.37;;
22034;SDS011;11181;51.002;4.356;2023-04-25T08:02:22;7.70;;;2.03;;
22034;SDS011;11181;51.002;4.356;2023-04-25T08:04:50;10.23;;;2.43;;
22034;SDS011;11181;51.002;4.356;2023-04-25T08:07:17;8.90;;;2.63;;
22034;SDS011;11181;51.002;4.356;2023-04-25T08:09:44;5.90;;;2.13;;
22034;SDS011;11181;51.002;4.356;2023-04-25T08:12:11;10.80;;;3.43;;
22034;SDS011;11181;51.002;4.356;2023-04-25T08:14:39;5.47;;;2.10;;
22034;SDS011;11181;51.002;4.356;2023-04-25T08:17:06;3.50;;;1.80;;
22034;SDS011;11181;51.002;4.356;2023-04-25T08:19:33;8.07;;;1.70;;
22034;SDS011;11181;51.002;4.356;2023-04-25T08:22:00;4.70;;;1.63;;
22034;SDS011;11181;51.002;4.356;2023-04-25T08:24:27;6.20;;;1.87;;
22034;SDS011;11181;51.002;4.356;2023-04-25T08:26:54;6.53;;;1.57;;
22034;SDS011;11181;51.002;4.356;2023-04-25T08:29:21;4.13;;;1.80;;
22034;SDS011;11181;51.002;4.356;2023-04-25T08:31:51;8.47;;;2.00;;
22034;SDS011;11181;51.002;4.356;2023-04-25T08:34:18;6.77;;;1.97;;
22034;SDS011;11181;51.002;4.356;2023-04-25T08:36:45;6.37;;;2.10;;
22034;SDS011;11181;51.002;4.356;2023-04-25T08:39:12;3.80;;;1.83;;
22034;SDS011;11181;51.002;4.356;2023-04-25T08:41:39;6.17;;;1.93;;
22034;SDS011;11181;51.002;4.356;2023-04-25T08:44:07;8.93;;;2.20;;
22034;SDS011;11181;51.002;4.356;2023-04-25T08:46:37;4.17;;;1.73;;
22034;SDS011;11181;51.002;4.356;2023-04-25T08:49:07;5.53;;;2.10;;
22034;SDS011;11181;51.002;4.356;2023-04-25T08:51:35;5.13;;;2.53;;
22034;SDS011;11181;51.002;4.356;2023-04-25T08:54:08;7.30;;;2.00;;
22034;SDS011;11181;51.002;4.356;2023-04-25T08:56:36;6.33;;;1.53;;
22034;SDS011;11181;51.002;4.356;2023-04-25T08:59:04;5.57;;;1.93;;
22034;SDS011;11181;51.002;4.356;2023-04-25T09:01:33;3.90;;;1.77;;
22034;SDS011;11181;51.002;4.356;2023-04-25T09:04:00;8.07;;;2.80;;
22034;SDS011;11181;51.002;4.356;2023-04-25T09:06:29;3.77;;;1.53;;
22034;SDS011;11181;51.002;4.356;2023-04-25T09:09:00;7.27;;;1.77;;
22034;SDS011;11181;51.002;4.356;2023-04-25T09:11:29;5.47;;;1.30;;
22034;SDS011;11181;51.002;4.356;2023-04-25T09:14:09;5.83;;;1.63;;
22034;SDS011;11181;51.002;4.356;2023-04-25T09:16:59;4.23;;;1.50;;
22034;SDS011;11181;51.002;4.356;2023-04-25T09:19:28;4.57;;;1.27;;
22034;SDS011;11181;51.002;4.356;2023-04-25T09:21:57;3.67;;;1.40;;
22034;SDS011;11181;51.002;4.356;2023-04-25T09:24:31;5.00;;;1.47;;
22034;SDS011;11181;51.002;4.356;2023-04-25T09:27:02;4.80;;;1.13;;
22034;SDS011;11181;51.002;4.356;2023-04-25T09:29:30;7.03;;;2.43;;
22034;SDS011;11181;51.002;4.356;2023-04-25T09:32:10;4.83;;;1.53;;
22034;SDS011;11181;51.002;4.356;2023-04-25T09:34:39;5.67;;;1.73;;
22034;SDS011;11181;51.002;4.356;2023-04-25T09:37:08;2.67;;;1.07;;
22034;SDS011;11181;51.002;4.356;2023-04-25T09:39:36;5.07;;;1.83;;
22034;SDS011;11181;51.002;4.356;2023-04-25T09:42:03;2.50;;;1.07;;
22034;SDS011;11181;51.002;4.356;2023-04-25T09:44:30;2.90;;;1.50;;
22034;SDS011;11181;51.002;4.356;2023-04-25T09:46:58;6.50;;;1.20;;
22034;SDS011;11181;51.002;4.356;2023-04-25T09:49:25;4.67;;;0.93;;
22034;SDS011;11181;51.002;4.356;2023-04-25T09:51:54;1.77;;;0.90;;
22034;SDS011;11181;51.002;4.356;2023-04-25T09:54:23;5.03;;;1.00;;
22034;SDS011;11181;51.002;4.356;2023-04-25T09:56:51;5.23;;;1.33;;
22034;SDS011;11181;51.002;4.356;2023-04-25T09:59:19;2.00;;;0.90;;
22034;SDS011;11181;51.002;4.356;2023-04-25T10:01:48;4.67;;;1.33;;
22034;SDS011;11181;51.002;4.356;2023-04-25T10:04:17;3.47;;;1.50;;
22034;SDS011;11181;51.002;4.356;2023-04-25T10:06:49;5.60;;;1.40;;
22034;SDS011;11181;51.002;4.356;2023-04-25T10:09:18;4.80;;;1.10;;
22034;SDS011;11181;51.002;4.356;2023-04-25T10:11:48;3.20;;;1.37;;
22034;SDS011;11181;51.002;4.356;2023-04-25T10:14:16;2.57;;;1.13;;
22034;SDS011;11181;51.002;4.356;2023-04-25T10:16:44;3.27;;;1.30;;
22034;SDS011;11181;51.002;4.356;2023-04-25T10:19:11;3.23;;;1.10;;
22034;SDS011;11181;51.002;4.356;2023-04-25T10:21:40;6.77;;;2.00;;
22034;SDS011;11181;51.002;4.356;2023-04-25T10:24:14;2.43;;;1.20;;
22034;SDS011;11181;51.002;4.356;2023-04-25T10:26:41;4.17;;;2.27;;
22034;SDS011;11181;51.002;4.356;2023-04-25T10:29:10;3.23;;;1.30;;
22034;SDS011;11181;51.002;4.356;2023-04-25T10:31:44;5.43;;;1.70;;
22034;SDS011;11181;51.002;4.356;2023-04-25T10:34:12;3.27;;;1.20;;
22034;SDS011;11181;51.002;4.356;2023-04-25T10:36:39;3.20;;;1.47;;
22034;SDS011;11181;51.002;4.356;2023-04-25T10:39:06;4.20;;;1.87;;
22034;SDS011;11181;51.002;4.356;2023-04-25T10:41:45;2.53;;;1.40;;
22034;SDS011;11181;51.002;4.356;2023-04-25T10:44:14;3.40;;;1.50;;
22034;SDS011;11181;51.002;4.356;2023-04-25T10:46:41;5.73;;;1.20;;
22034;SDS011;11181;51.002;4.356;2023-04-25T10:49:11;5.53;;;2.30;;
22034;SDS011;11181;51.002;4.356;2023-04-25T10:52:10;6.47;;;1.53;;
22034;SDS011;11181;51.002;4.356;2023-04-25T10:54:40;3.50;;;1.70;;
22034;SDS011;11181;51.002;4.356;2023-04-25T10:57:08;6.20;;;1.60;;
22034;SDS011;11181;51.002;4.356;2023-04-25T10:59:55;5.20;;;1.47;;
22034;SDS011;11181;51.002;4.356;2023-04-25T11:02:26;6.47;;;1.93;;
22034;SDS011;11181;51.002;4.356;2023-04-25T11:04:53;5.13;;;1.47;;
22034;SDS011;11181;51.002;4.356;2023-04-25T11:07:23;7.17;;;1.87;;
22034;SDS011;11181;51.002;4.356;2023-04-25T11:10:01;4.70;;;1.73;;
22034;SDS011;11181;51.002;4.356;2023-04-25T11:12:29;7.83;;;1.70;;
22034;SDS011;11181;51.002;4.356;2023-04-25T11:15:03;3.43;;;1.40;;
22034;SDS011;11181;51.002;4.356;2023-04-25T11:17:30;3.20;;;0.93;;
22034;SDS011;11181;51.002;4.356;2023-04-25T11:19:58;5.10;;;1.30;;
22034;SDS011;11181;51.002;4.356;2023-04-25T11:22:26;2.17;;;1.13;;
22034;SDS011;11181;51.002;4.356;2023-04-25T11:24:55;1.27;;;1.10;;
22034;SDS011;11181;51.002;4.356;2023-04-25T11:27:21;4.17;;;2.00;;
22034;SDS011;11181;51.002;4.356;2023-04-25T11:29:49;5.37;;;1.17;;
22034;SDS011;11181;51.002;4.356;2023-04-25T11:32:18;3.30;;;1.10;;
22034;SDS011;11181;51.002;4.356;2023-04-25T11:34:45;1.20;;;1.10;;
22034;SDS011;11181;51.002;4.356;2023-04-25T11:37:13;4.60;;;1.27;;
22034;SDS011;11181;51.002;4.356;2023-04-25T11:39:44;1.77;;;1.00;;
22034;SDS011;11181;51.002;4.356;2023-04-25T11:42:12;3.33;;;1.00;;
22034;SDS011;11181;51.002;4.356;2023-04-25T11:44:39;3.27;;;1.00;;
22034;SDS011;11181;51.002;4.356;2023-04-25T11:47:06;2.80;;;1.03;;
22034;SDS011;11181;51.002;4.356;2023-04-25T11:49:35;3.37;;;0.93;;
22034;SDS011;11181;51.002;4.356;2023-04-25T11:52:02;1.60;;;0.90;;
22034;SDS011;11181;51.002;4.356;2023-04-25T11:54:29;1.83;;;1.10;;
22034;SDS011;11181;51.002;4.356;2023-04-25T11:56:56;3.00;;;1.10;;
22034;SDS011;11181;51.002;4.356;2023-04-25T11:59:23;1.63;;;0.87;;
22034;SDS011;11181;51.002;4.356;2023-04-25T12:01:51;2.50;;;0.93;;
22034;SDS011;11181;51.002;4.356;2023-04-25T12:04:19;1.93;;;0.93;;
22034;SDS011;11181;51.002;4.356;2023-04-25T12:06:49;2.57;;;0.87;;
22034;SDS011;11181;51.002;4.356;2023-04-25T12:09:17;1.93;;;0.80;;
22034;SDS011;11181;51.002;4.356;2023-04-25T12:11:46;2.17;;;1.13;;
22034;SDS011;11181;51.002;4.356;2023-04-25T12:14:20;2.03;;;1.03;;
22034;SDS011;11181;51.002;4.356;2023-04-25T12:16:49;2.63;;;0.70;;
22034;SDS011;11181;51.002;4.356;2023-04-25T12:19:17;3.70;;;0.70;;
22034;SDS011;11181;51.002;4.356;2023-04-25T12:21:45;3.43;;;1.07;;
22034;SDS011;11181;51.002;4.356;2023-04-25T12:24:16;2.03;;;1.00;;
22034;SDS011;11181;51.002;4.356;2023-04-25T12:26:50;2.50;;;1.30;;
22034;SDS011;11181;51.002;4.356;2023-04-25T12:29:18;3.90;;;1.40;;
22034;SDS011;11181;51.002;4.356;2023-04-25T12:31:46;4.47;;;1.00;;
22034;SDS011;11181;51.002;4.356;2023-04-25T12:34:14;3.17;;;1.37;;
22034;SDS011;11181;51.002;4.356;2023-04-25T12:36:41;5.90;;;1.70;;
22034;SDS011;11181;51.002;4.356;2023-04-25T12:39:07;4.70;;;1.30;;
22034;SDS011;11181;51.002;4.356;2023-04-25T12:41:36;3.80;;;1.27;;
22034;SDS011;11181;51.002;4.356;2023-04-25T12:44:03;2.53;;;1.10;;
22034;SDS011;11181;51.002;4.356;2023-04-25T12:46:30;3.47;;;1.50;;
22034;SDS011;11181;51.002;4.356;2023-04-25T12:48:57;3.83;;;1.30;;
22034;SDS011;11181;51.002;4.356;2023-04-25T12:51:24;2.47;;;0.90;;
22034;SDS011;11181;51.002;4.356;2023-04-25T12:53:52;1.70;;;1.00;;
22034;SDS011;11181;51.002;4.356;2023-04-25T12:56:19;1.93;;;0.93;;
22034;SDS011;11181;51.002;4.356;2023-04-25T12:58:48;1.50;;;1.00;;
22034;SDS011;11181;51.002;4.356;2023-04-25T13:01:14;3.93;;;1.10;;
22034;SDS011;11181;51.002;4.356;2023-04-25T13:03:41;9.40;;;2.07;;
22034;SDS011;11181;51.002;4.356;2023-04-25T13:06:09;1.37;;;0.90;;
22034;SDS011;11181;51.002;4.356;2023-04-25T13:08:35;3.90;;;1.03;;
22034;SDS011;11181;51.002;4.356;2023-04-25T13:11:03;4.73;;;0.80;;
22034;SDS011;11181;51.002;4.356;2023-04-25T13:13:30;2.50;;;0.90;;
22034;SDS011;11181;51.002;4.356;2023-04-25T13:16:00;2.53;;;0.90;;
22034;SDS011;11181;51.002;4.356;2023-04-25T13:18:28;5.80;;;1.10;;
22034;SDS011;11181;51.002;4.356;2023-04-25T13:20:55;4.40;;;1.37;;
22034;SDS011;11181;51.002;4.356;2023-04-25T13:23:22;3.00;;;0.93;;
22034;SDS011;11181;51.002;4.356;2023-04-25T13:25:51;2.50;;;1.03;;
22034;SDS011;11181;51.002;4.356;2023-04-25T13:28:18;4.63;;;0.90;;
22034;SDS011;11181;51.002;4.356;2023-04-25T13:30:45;1.80;;;0.60;;
22034;SDS011;11181;51.002;4.356;2023-04-25T13:33:14;1.13;;;0.70;;
22034;SDS011;11181;51.002;4.356;2023-04-25T13:35:41;2.17;;;0.97;;
22034;SDS011;11181;51.002;4.356;2023-04-25T13:38:11;2.70;;;1.07;;
22034;SDS011;11181;51.002;4.356;2023-04-25T13:40:38;4.17;;;0.93;;
22034;SDS011;11181;51.002;4.356;2023-04-25T13:43:05;2.50;;;1.00;;
22034;SDS011;11181;51.002;4.356;2023-04-25T13:45:32;1.97;;;1.07;;
22034;SDS011;11181;51.002;4.356;2023-04-25T13:47:59;3.77;;;0.93;;
22034;SDS011;11181;51.002;4.356;2023-04-25T13:50:28;2.60;;;1.20;;
22034;SDS011;11181;51.002;4.356;2023-04-25T13:52:55;2.37;;;1.17;;
22034;SDS011;11181;51.002;4.356;2023-04-25T13:55:22;5.63;;;2.40;;
22034;SDS011;11181;51.002;4.356;2023-04-25T13:57:49;2.47;;;1.03;;
22034;SDS011;11181;51.002;4.356;2023-04-25T14:00:16;2.87;;;1.23;;
22034;SDS011;11181;51.002;4.356;2023-04-25T14:02:43;3.10;;;1.70;;
22034;SDS011;11181;51.002;4.356;2023-04-25T14:05:10;3.70;;;0.90;;
22034;SDS011;11181;51.002;4.356;2023-04-25T14:07:39;2.33;;;0.90;;
22034;SDS011;11181;51.002;4.356;2023-04-25T14:10:06;2.73;;;0.80;;
22034;SDS011;11181;51.002;4.356;2023-04-25T14:12:33;1.40;;;0.90;;
22034;SDS011;11181;51.002;4.356;2023-04-25T14:15:00;2.70;;;1.10;;
22034;SDS011;11181;51.002;4.356;2023-04-25T14:17:27;2.80;;;0.70;;
22034;SDS011;11181;51.002;4.356;2023-04-25T14:19:54;2.97;;;1.40;;
22034;SDS011;11181;51.002;4.356;2023-04-25T14:22:21;1.73;;;1.20;;
22034;SDS011;11181;51.002;4.356;2023-04-25T14:24:50;2.00;;;0.90;;
22034;SDS011;11181;51.002;4.356;2023-04-25T14:27:17;1.07;;;0.80;;
22034;SDS011;11181;51.002;4.356;2023-04-25T14:29:44;3.07;;;0.90;;
22034;SDS011;11181;51.002;4.356;2023-04-25T14:32:11;4.50;;;1.20;;
22034;SDS011;11181;51.002;4.356;2023-04-25T14:34:38;2.43;;;1.00;;
22034;SDS011;11181;51.002;4.356;2023-04-25T14:37:05;2.83;;;1.00;;
22034;SDS011;11181;51.002;4.356;2023-04-25T14:39:32;5.77;;;1.07;;
22034;SDS011;11181;51.002;4.356;2023-04-25T14:42:00;3.30;;;1.13;;
22034;SDS011;11181;51.002;4.356;2023-04-25T14:44:27;3.10;;;1.20;;
22034;SDS011;11181;51.002;4.356;2023-04-25T14:46:54;1.40;;;0.77;;